createdAt,value
2019-03-02T00:02:12.543Z,7.30
2019-03-02T00:05:01.336Z,7.63
2019-03-02T00:07:50.149Z,6.24
2019-03-02T00:10:40.647Z,7.88
2019-03-02T00:13:29.497Z,7.96
2019-03-02T00:16:18.298Z,7.45
2019-03-02T00:24:57.907Z,7.69
2019-03-02T00:27:45.954Z,7.67
2019-03-02T00:30:41.621Z,7.49
2019-03-02T00:33:21.476Z,6.36
2019-03-02T00:36:10.268Z,7.53
2019-03-02T00:38:59.085Z,6.79
2019-03-02T00:41:47.884Z,7.21
2019-03-02T00:44:38.596Z,5.75
2019-03-02T00:47:19.955Z,7.15
2019-03-02T00:53:23.883Z,6.64
2019-03-02T00:56:12.662Z,6.62
2019-03-02T00:59:03.976Z,6.58
2019-03-02T01:01:51.995Z,6.94
2019-03-02T01:04:40.813Z,6.75
2019-03-02T01:07:29.615Z,5.27
2019-03-02T01:13:12.710Z,6.97
2019-03-02T01:16:01.522Z,7.07
2019-03-02T01:18:50.325Z,7.20
2019-03-02T01:21:41.313Z,7.16
2019-03-02T01:24:29.683Z,7.19
2019-03-02T01:27:18.504Z,6.29
2019-03-02T01:30:30.061Z,7.20
2019-03-02T01:33:18.751Z,7.45
2019-03-02T01:36:07.566Z,5.73
2019-03-02T01:38:56.367Z,6.99
2019-03-02T01:41:45.185Z,7.12
2019-03-02T01:44:33.987Z,7.19
2019-03-02T01:47:22.797Z,6.70
2019-03-02T01:50:08.707Z,7.36
2019-03-02T01:52:56.819Z,7.55
2019-03-02T01:55:45.620Z,7.49
2019-03-02T01:58:34.446Z,7.63
2019-03-02T02:01:24.846Z,7.64
2019-03-02T02:04:13.851Z,6.11
2019-03-02T02:07:02.638Z,7.74
2019-03-02T02:09:51.454Z,7.99
2019-03-02T02:12:40.265Z,8.12
2019-03-02T02:18:37.309Z,8.26
2019-03-02T02:21:26.587Z,8.26
2019-03-02T02:24:16.713Z,8.21
2019-03-02T02:27:05.611Z,8.08
2019-03-02T02:29:54.408Z,8.16
2019-03-02T02:32:43.205Z,7.59
2019-03-02T02:35:25.145Z,8.21
2019-03-02T02:38:15.953Z,8.30
2019-03-02T02:41:04.503Z,8.35
2019-03-02T02:43:54.192Z,7.68
2019-03-02T02:46:43.955Z,8.27
2019-03-02T02:49:25.799Z,8.19
2019-03-02T02:52:14.626Z,8.16
2019-03-02T02:58:19.290Z,7.84
2019-03-02T03:01:08.420Z,7.76
2019-03-02T03:03:59.452Z,7.87
2019-03-02T03:06:47.756Z,7.88
2019-03-02T03:12:32.166Z,8.09
2019-03-02T03:15:21.033Z,8.24
2019-03-02T03:18:12.542Z,8.31
2019-03-02T03:21:00.471Z,8.44
2019-03-02T03:26:57.076Z,8.71
2019-03-02T03:29:49.506Z,8.67
2019-03-02T03:32:36.511Z,8.67
2019-03-02T03:35:25.458Z,8.64
2019-03-02T03:38:14.310Z,8.66
2019-03-02T03:41:05.253Z,8.53
2019-03-02T03:43:53.820Z,8.51
2019-03-02T03:46:42.652Z,8.63
2019-03-02T03:49:34.368Z,7.04
2019-03-02T03:52:14.494Z,8.58
2019-03-02T03:55:03.435Z,8.48
2019-03-02T03:57:55.414Z,8.51
2019-03-02T04:00:42.846Z,8.53
2019-03-02T04:03:31.769Z,8.39
2019-03-02T04:06:23.355Z,8.40
2019-03-02T04:09:11.278Z,8.40
2019-03-02T04:12:00.160Z,7.00
2019-03-02T04:14:49.319Z,8.36
2019-03-02T04:17:39.104Z,8.37
2019-03-02T04:20:49.685Z,8.44
2019-03-02T04:23:38.743Z,8.22
2019-03-02T04:26:31.301Z,8.17
2019-03-02T04:29:18.127Z,6.77
2019-03-02T04:32:06.972Z,8.09
2019-03-02T04:34:57.802Z,8.10
2019-03-02T04:37:46.371Z,8.22
2019-03-02T04:40:35.208Z,6.85
2019-03-02T04:43:23.999Z,8.27
2019-03-02T04:46:15.432Z,8.30
2019-03-02T04:49:22.444Z,8.29
2019-03-02T04:52:04.044Z,8.11
2019-03-02T04:54:52.855Z,7.26
2019-03-02T04:57:43.151Z,6.90
2019-03-02T05:00:33.088Z,8.10
2019-03-02T05:03:22.980Z,7.61
2019-03-02T05:06:11.862Z,8.05
2019-03-02T05:09:00.659Z,8.13
2019-03-02T05:11:49.476Z,8.20
2019-03-02T05:14:40.168Z,7.02
2019-03-02T05:17:28.827Z,7.97
2019-03-02T05:20:17.645Z,8.28
2019-03-02T05:23:27.641Z,8.24
2019-03-02T05:26:16.021Z,7.43
2019-03-02T05:29:04.824Z,8.24
2019-03-02T05:31:53.635Z,8.26
2019-03-02T05:34:42.431Z,8.30
2019-03-02T05:37:34.871Z,8.35
2019-03-02T05:40:24.460Z,8.21
2019-03-02T05:43:12.318Z,8.36
2019-03-02T05:46:01.122Z,7.01
2019-03-02T05:48:49.944Z,8.33
2019-03-02T05:51:31.190Z,6.74
2019-03-02T05:54:20.005Z,8.03
2019-03-02T05:57:08.806Z,8.08
2019-03-02T06:03:12.809Z,8.11
2019-03-02T06:06:01.627Z,8.07
2019-03-02T06:08:50.452Z,6.47
2019-03-02T06:11:40.512Z,8.11
2019-03-02T06:14:30.471Z,8.13
2019-03-02T06:17:20.337Z,8.19
2019-03-02T06:20:32.540Z,8.23
2019-03-02T06:23:20.901Z,8.20
2019-03-02T06:26:10.331Z,8.18
2019-03-02T06:29:00.251Z,8.19
2019-03-02T06:31:50.692Z,8.06
2019-03-02T06:34:39.623Z,8.32
2019-03-02T06:37:28.740Z,7.98
2019-03-02T06:40:20.152Z,8.50
2019-03-02T06:43:08.167Z,7.18
2019-03-02T06:45:56.961Z,8.40
2019-03-02T06:48:45.910Z,8.29
2019-03-02T06:51:28.769Z,8.46
2019-03-02T06:54:17.584Z,8.60
2019-03-02T06:57:06.379Z,8.73
2019-03-02T06:59:55.195Z,8.63
2019-03-02T07:02:43.990Z,8.92
2019-03-02T07:05:33.967Z,7.39
2019-03-02T07:08:25.343Z,8.94
2019-03-02T07:11:13.866Z,8.31
2019-03-02T07:16:57.365Z,8.86
2019-03-02T07:22:41.551Z,8.89
2019-03-02T07:25:30.380Z,8.76
2019-03-02T07:28:19.171Z,9.01
2019-03-02T07:31:07.995Z,8.62
2019-03-02T07:33:56.789Z,9.13
2019-03-02T07:36:45.611Z,9.12
2019-03-02T07:39:36.453Z,9.15
2019-03-02T07:42:24.940Z,8.64
2019-03-02T07:45:34.856Z,9.16
2019-03-02T07:48:23.585Z,9.29
2019-03-02T07:51:06.450Z,9.24
2019-03-02T07:53:55.406Z,9.15
2019-03-02T07:56:44.213Z,7.99
2019-03-02T07:59:33.024Z,9.47
2019-03-02T08:02:21.830Z,8.53
2019-03-02T08:05:29.722Z,9.52
2019-03-02T08:08:18.539Z,9.36
2019-03-02T08:11:10.596Z,9.41
2019-03-02T08:13:58.171Z,9.50
2019-03-02T08:16:47.239Z,9.55
2019-03-02T08:19:36.057Z,9.43
2019-03-02T08:22:24.850Z,9.14
2019-03-02T08:25:14.224Z,9.31
2019-03-02T08:28:03.093Z,9.42
2019-03-02T08:30:51.903Z,8.02
2019-03-02T08:33:45.905Z,8.16
2019-03-02T08:36:31.235Z,9.34
2019-03-02T08:39:20.032Z,8.97
2019-03-02T08:42:11.853Z,9.30
2019-03-02T08:44:59.365Z,9.32
2019-03-02T08:48:07.199Z,9.28
2019-03-02T08:50:55.998Z,9.37
2019-03-02T08:53:37.868Z,7.72
2019-03-02T08:56:26.657Z,9.37
2019-03-02T08:59:15.481Z,8.22
2019-03-02T09:02:04.366Z,9.56
2019-03-02T09:04:53.162Z,8.35
2019-03-02T09:07:42.371Z,9.68
2019-03-02T09:10:31.167Z,9.61
2019-03-02T09:13:19.974Z,9.16
2019-03-02T09:16:08.781Z,9.46
2019-03-02T09:18:57.582Z,8.28
2019-03-02T09:21:48.009Z,9.38
2019-03-02T09:24:36.943Z,8.23
2019-03-02T09:27:25.787Z,9.44
2019-03-02T09:30:35.532Z,9.54
2019-03-02T09:33:24.692Z,9.58
2019-03-02T09:42:04.435Z,9.47
2019-03-02T09:44:53.229Z,9.64
2019-03-02T09:47:43.954Z,9.58
2019-03-02T09:50:32.568Z,9.47
2019-03-02T09:53:12.637Z,9.54
2019-03-02T09:56:01.455Z,9.44
2019-03-02T09:58:50.250Z,9.55
2019-03-02T10:01:39.483Z,9.34
2019-03-02T10:04:29.584Z,9.46
2019-03-02T10:07:18.402Z,9.14
2019-03-02T10:10:29.084Z,9.15
2019-03-02T10:13:17.063Z,9.14
2019-03-02T10:16:05.932Z,9.16
2019-03-02T10:18:54.827Z,9.30
2019-03-02T10:21:47.327Z,9.23
2019-03-02T10:24:34.155Z,9.40
2019-03-02T10:27:22.969Z,9.36
2019-03-02T10:30:32.672Z,9.32
2019-03-02T10:36:15.586Z,9.60
2019-03-02T10:39:25.312Z,9.74
2019-03-02T10:42:14.110Z,9.91
2019-03-02T10:45:02.933Z,10.07
2019-03-02T10:48:10.815Z,10.14
2019-03-02T10:51:02.319Z,10.24
2019-03-02T10:53:42.975Z,10.33
2019-03-02T10:56:31.797Z,10.30
2019-03-02T10:59:20.605Z,10.22
2019-03-02T11:02:09.588Z,10.33
2019-03-02T11:10:52.243Z,9.07
2019-03-02T11:13:59.355Z,9.56
2019-03-02T11:17:07.204Z,10.15
2019-03-02T11:20:15.029Z,10.06
2019-03-02T11:26:18.666Z,9.54
2019-03-02T11:29:26.505Z,10.11
2019-03-02T11:32:34.350Z,10.04
2019-03-02T11:35:42.427Z,10.00
2019-03-02T11:38:50.268Z,9.71
2019-03-02T11:41:58.088Z,10.19
2019-03-02T11:45:05.935Z,10.05
2019-03-02T11:51:33.577Z,10.35
2019-03-02T11:54:41.413Z,10.37
2019-03-02T11:57:49.262Z,10.40
2019-03-02T12:00:57.869Z,10.58
2019-03-02T12:04:06.649Z,11.10
2019-03-02T12:07:14.480Z,11.41
2019-03-02T12:10:22.327Z,11.79
2019-03-02T12:13:31.126Z,11.59
2019-03-02T12:16:39.803Z,11.66
2019-03-02T12:19:47.637Z,11.64
2019-03-02T12:22:55.473Z,11.68
2019-03-02T12:26:03.299Z,11.56
2019-03-02T12:29:13.504Z,11.64
2019-03-02T12:32:20.689Z,11.56
2019-03-02T12:38:27.627Z,10.63
2019-03-02T12:47:40.578Z,10.31
2019-03-02T12:50:24.932Z,11.56
2019-03-02T12:53:32.781Z,11.53
2019-03-02T12:56:42.059Z,11.16
2019-03-02T12:59:50.186Z,10.76
2019-03-02T13:02:58.015Z,11.38
2019-03-02T13:06:05.855Z,11.51
2019-03-02T13:12:23.082Z,11.62
2019-03-02T13:24:57.876Z,11.68
2019-03-02T13:27:44.665Z,11.52
2019-03-02T13:30:52.515Z,11.56
2019-03-02T13:34:00.343Z,11.68
2019-03-02T13:40:00.406Z,11.60
2019-03-02T13:43:08.290Z,11.85
2019-03-02T13:46:16.191Z,11.93
2019-03-02T13:49:24.123Z,10.45
2019-03-02T13:52:24.522Z,12.05
2019-03-02T13:55:13.520Z,12.11
2019-03-02T13:58:22.792Z,12.41
2019-03-02T14:01:30.644Z,12.33
2019-03-02T14:04:39.073Z,12.31
2019-03-02T14:07:48.037Z,12.21
2019-03-02T14:10:57.309Z,12.37
2019-03-02T14:14:08.331Z,12.50
2019-03-02T14:26:40.331Z,12.90
2019-03-02T14:29:48.320Z,13.10
2019-03-02T14:32:56.177Z,13.14
2019-03-02T14:36:04.011Z,13.19
2019-03-02T14:39:11.854Z,13.14
2019-03-02T14:42:03.970Z,12.85
2019-03-02T14:44:50.807Z,12.95
2019-03-02T14:47:39.393Z,12.99
2019-03-02T14:50:47.309Z,12.86
2019-03-02T14:53:55.140Z,12.77
2019-03-02T14:57:02.987Z,13.06
2019-03-02T14:59:51.560Z,13.77
2019-03-02T15:02:40.164Z,13.88
2019-03-02T15:05:47.997Z,13.69
2019-03-02T15:11:51.407Z,13.36
2019-03-02T15:21:23.981Z,13.05
2019-03-02T15:30:37.009Z,13.08
2019-03-02T15:36:34.998Z,12.94
2019-03-02T15:39:42.827Z,12.90
2019-03-02T15:45:42.951Z,11.41
2019-03-02T15:48:51.027Z,11.34
2019-03-02T16:00:53.196Z,13.17
2019-03-02T16:04:01.025Z,13.45
2019-03-02T16:07:08.871Z,13.59
2019-03-02T16:10:16.701Z,13.62
2019-03-02T16:13:24.619Z,13.72
2019-03-02T16:19:41.912Z,13.74
2019-03-02T16:25:59.137Z,13.52
2019-03-02T16:29:06.966Z,13.53
2019-03-02T16:32:16.764Z,13.49
2019-03-02T16:35:45.293Z,13.32
2019-03-02T16:41:24.196Z,13.19
2019-03-02T16:50:37.444Z,13.02
2019-03-02T16:53:45.307Z,13.04
2019-03-02T17:02:58.422Z,13.03
2019-03-02T17:09:15.970Z,13.02
2019-03-02T17:12:24.068Z,12.91
2019-03-02T17:18:27.459Z,12.95
2019-03-02T17:21:38.127Z,12.85
2019-03-02T17:24:25.628Z,12.88
2019-03-02T17:27:33.437Z,12.74
2019-03-02T17:30:41.268Z,12.69
2019-03-02T17:33:49.104Z,12.05
2019-03-02T17:36:56.948Z,11.50
2019-03-02T17:42:44.787Z,12.77
2019-03-02T17:45:35.333Z,12.85
2019-03-02T17:48:43.595Z,12.77
2019-03-02T17:51:51.436Z,11.59
2019-03-02T17:54:59.262Z,12.48
2019-03-02T18:01:06.464Z,12.93
2019-03-02T18:07:23.694Z,12.38
2019-03-02T18:19:20.072Z,12.63
2019-03-02T18:22:10.421Z,11.31
2019-03-02T18:24:59.501Z,12.51
2019-03-02T18:27:48.305Z,11.20
2019-03-02T18:30:38.953Z,12.43
2019-03-02T18:36:41.446Z,12.45
2019-03-02T18:39:27.589Z,11.09
2019-03-02T18:42:08.882Z,12.55
2019-03-02T18:45:00.505Z,12.56
2019-03-02T18:47:48.286Z,11.25
2019-03-02T18:50:56.132Z,12.50
2019-03-02T18:53:44.936Z,12.51
2019-03-02T18:56:37.314Z,12.46
2019-03-02T18:59:24.301Z,12.33
2019-03-02T19:02:32.472Z,12.34
2019-03-02T19:08:30.742Z,12.46
2019-03-02T19:11:20.161Z,10.96
2019-03-02T19:14:10.085Z,12.29
2019-03-02T19:16:58.885Z,11.63
2019-03-02T19:19:47.709Z,12.37
2019-03-02T19:22:36.515Z,12.32
2019-03-02T19:25:25.344Z,12.35
2019-03-02T19:28:14.147Z,12.45
2019-03-02T19:31:02.968Z,12.44
2019-03-02T19:33:51.765Z,12.39
2019-03-02T19:36:40.585Z,12.24
2019-03-02T19:39:29.386Z,12.32
2019-03-02T19:42:18.204Z,12.02
2019-03-02T19:44:59.466Z,12.08
2019-03-02T19:47:48.350Z,10.42
2019-03-02T19:50:37.223Z,11.92
2019-03-02T19:53:26.043Z,11.84
2019-03-02T19:56:14.840Z,11.84
2019-03-02T19:59:03.656Z,11.97
2019-03-02T20:01:52.454Z,10.44
2019-03-02T20:04:41.280Z,11.81
2019-03-02T20:07:30.104Z,11.94
2019-03-02T20:10:39.820Z,11.97
2019-03-02T20:13:28.629Z,11.77
2019-03-02T20:19:25.190Z,11.76
2019-03-02T20:22:14.016Z,11.02
2019-03-02T20:25:02.841Z,11.80
2019-03-02T20:27:51.634Z,11.67
2019-03-02T20:30:40.461Z,11.07
2019-03-02T20:33:29.262Z,11.68
2019-03-02T20:36:18.080Z,10.54
2019-03-02T20:39:27.789Z,11.55
2019-03-02T20:42:16.609Z,11.46
2019-03-02T20:44:58.084Z,11.57
2019-03-02T20:47:46.904Z,11.56
2019-03-02T20:50:35.705Z,10.83
2019-03-02T20:53:24.565Z,11.40
2019-03-02T20:56:13.408Z,11.30
2019-03-02T20:59:02.226Z,11.41
2019-03-02T21:01:51.091Z,11.37
2019-03-02T21:04:39.939Z,11.56
2019-03-02T21:07:28.777Z,11.54
2019-03-02T21:10:38.530Z,11.43
2019-03-02T21:13:46.343Z,11.59
2019-03-02T21:16:35.164Z,11.57
2019-03-02T21:19:42.987Z,11.80
2019-03-02T21:22:31.812Z,10.50
2019-03-02T21:25:20.610Z,11.56
2019-03-02T21:28:28.539Z,10.22
2019-03-02T21:31:17.333Z,11.68
2019-03-02T21:34:06.222Z,11.60
2019-03-02T21:36:55.018Z,10.44
2019-03-02T21:39:43.836Z,11.81
2019-03-02T21:42:32.625Z,11.72
2019-03-02T21:45:17.867Z,11.78
2019-03-02T21:48:06.738Z,11.62
2019-03-02T21:51:16.515Z,11.84
2019-03-02T21:57:13.073Z,11.53
2019-03-02T22:00:01.876Z,11.73
2019-03-02T22:02:50.693Z,11.81
2019-03-02T22:05:39.805Z,10.19
2019-03-02T22:08:28.619Z,11.73
2019-03-02T22:11:17.416Z,11.06
2019-03-02T22:14:06.272Z,11.79
2019-03-02T22:19:49.847Z,11.12
2019-03-02T22:22:38.645Z,11.95
2019-03-02T22:25:27.465Z,12.06
2019-03-02T22:28:16.257Z,12.03
2019-03-02T22:31:05.075Z,12.02
2019-03-02T22:33:53.879Z,12.18
2019-03-02T22:36:42.690Z,12.13
2019-03-02T22:39:31.497Z,12.03
2019-03-02T22:42:20.306Z,12.27
2019-03-02T22:45:02.374Z,12.23
2019-03-02T22:47:51.190Z,12.41
2019-03-02T22:50:39.992Z,11.72
2019-03-02T22:53:28.811Z,12.53
2019-03-02T22:56:17.602Z,12.57
2019-03-02T22:59:05.567Z,12.66
2019-03-02T23:02:33.054Z,11.95
2019-03-02T23:08:37.227Z,12.81
2019-03-02T23:11:26.023Z,12.41
2019-03-02T23:14:14.843Z,12.65
2019-03-02T23:20:11.400Z,12.83
2019-03-02T23:23:00.190Z,12.97
2019-03-02T23:25:49.016Z,13.00
2019-03-02T23:28:37.806Z,12.69
2019-03-02T23:31:26.614Z,11.44
2019-03-02T23:34:15.420Z,12.19
2019-03-02T23:37:04.233Z,13.05
2019-03-02T23:39:53.057Z,13.00
2019-03-02T23:42:41.843Z,12.76
2019-03-02T23:45:23.257Z,12.75
2019-03-02T23:48:12.074Z,12.72
2019-03-02T23:51:00.872Z,12.50
2019-03-02T23:53:49.688Z,12.67
2019-03-02T23:56:38.485Z,12.65
2019-03-02T23:59:27.305Z,12.71
